Lachine, MI

2:14 AM EDT on August 25, 2016 (GMT -0400)
MesoWest | | Change Station

Elev 750 ft 45.07 °N, 83.72 °W | Updated 44 minutes ago

Clear
Clear
72 °F
Feels Like 72 °F
N
6
Wind Variable Wind from West
Gusts 9.0 mph

Today
High -- | Low -- °F
--% Chance of Precip.
Yesterday
High -- | Low -- °F
Precip. -- in
Pressure 29.87 in
Visibility 10.0 miles
Clouds Clear
Dew Point 69 °F
Humidity 91%
Rainfall in
Snow Depth Not available.
6:49 AM 8:23 PM
Waning Gibbous, 49% visible
METAR KAPN 250554Z AUTO 22003KT 10SM CLR 22/19 A2987 RMK AO2 SLP113 T02170194 10261 20217 56006
Pressure 29.87 in
Visibility 10.0 miles
Clouds Clear
Dew Point 69 °F
Humidity 91%
Rainfall in
Snow Depth Not available.
6:49 AM 8:23 PM
Waning Gibbous, 49% visible
METAR KAPN 250554Z AUTO 22003KT 10SM CLR 22/19 A2987 RMK AO2 SLP113 T02170194 10261 20217 56006

10-Day Weather Forecast

Almanac

Astronomy

Aug. 25, 2016 Rise Set
Actual Time
Civil Twilight
Nautical Twilight
Astronomical Twilight
Moon
Length of Visible Light
Length of Day
Tomorrow will be .
, % of the Moon is Illuminated

Today's Extremes

State Highs State Lows

Community

WunderPhotos

Upload Photos

1,934,803 photos uploaded!

WunderBlog® & News

Nearby

Air Quality

  Air Quality AQ Index Pollutant
Not available.

Snow Depth

Station Depth Elevation

Earthquake Activity

City Distance Mag. Time & Date
Minimum magnitude displayed is 2.5.

Coastal Water Temperatures

Place Temperature

Stations

Nearby Weather Stations

Station Location Temp. Windchill Dew Point Humidity Wind Precip. Elev Updated Type
                   

Watches & Warnings

There are currently no watches in effect.